Time;durP1;ratioP1;P1;durP2;ratioP2;P2;SDS_P1;SDS_P2;PMS_P1;PMS_P2;Temp;Humidity;BMP_temperature;BMP_pressure;BME280_temperature;BME280_humidity;BME280_pressure;Samples;Min_cycle;Max_cycle;Signal;HPM_P1;HPM_P2
2023/09/10 00:01:59;;;;;;;4.10;3.40;;;21.80;99.90;;;;;;4990006;28;20218;-69
2023/09/10 00:04:27;;;;;;;3.03;2.72;;;21.70;99.90;;;;;;4986827;28;20294;-70
2023/09/10 00:06:57;;;;;;;2.63;2.42;;;21.60;99.90;;;;;;4992339;28;20240;-70
2023/09/10 00:09:25;;;;;;;3.50;3.20;;;21.60;99.90;;;;;;4997551;28;20259;-69
2023/09/10 00:11:52;;;;;;;3.50;3.20;;;21.50;99.90;;;;;;4985615;28;20548;-69
2023/09/10 00:14:20;;;;;;;3.30;3.00;;;21.50;99.90;;;;;;4988425;28;20200;-70
2023/09/10 00:16:48;;;;;;;5.38;3.30;;;21.50;99.90;;;;;;4996158;28;20240;-70
2023/09/10 00:19:16;;;;;;;3.05;2.50;;;21.60;99.90;;;;;;4978602;28;20214;-70
2023/09/10 00:21:44;;;;;;;7.82;3.90;;;21.60;99.90;;;;;;4996997;28;20283;-70
2023/09/10 00:24:13;;;;;;;3.72;3.22;;;21.70;99.90;;;;;;4989416;28;20572;-71
2023/09/10 00:26:41;;;;;;;4.20;3.45;;;21.80;99.90;;;;;;4992557;28;20233;-70
2023/09/10 00:29:09;;;;;;;3.10;2.80;;;21.70;99.90;;;;;;4992815;28;20284;-70
2023/09/10 00:31:37;;;;;;;4.40;3.67;;;21.80;99.90;;;;;;5000045;28;20281;-70
2023/09/10 00:34:05;;;;;;;4.43;3.55;;;21.70;99.90;;;;;;4980635;28;20290;-69
2023/09/10 00:36:34;;;;;;;3.13;2.85;;;21.80;99.90;;;;;;4983773;28;20856;-69
2023/09/10 00:39:03;;;;;;;3.15;2.95;;;21.70;99.90;;;;;;4997573;28;20213;-70
2023/09/10 00:41:32;;;;;;;2.85;2.65;;;21.70;99.90;;;;;;4992037;28;20230;-70
2023/09/10 00:44:00;;;;;;;4.32;2.90;;;21.70;99.90;;;;;;4994739;28;20210;-70
2023/09/10 00:46:28;;;;;;;2.92;2.67;;;21.70;99.90;;;;;;4987582;28;20596;-69
2023/09/10 00:48:57;;;;;;;5.13;3.80;;;21.60;99.90;;;;;;4990767;28;20198;-69
2023/09/10 00:51:25;;;;;;;8.27;4.60;;;21.60;99.90;;;;;;4988708;28;20624;-69
2023/09/10 00:53:55;;;;;;;3.50;3.20;;;21.60;99.90;;;;;;4984010;28;20597;-69
2023/09/10 00:56:24;;;;;;;2.97;2.67;;;21.60;99.90;;;;;;4957432;28;20751;-69
2023/09/10 00:58:53;;;;;;;3.38;3.08;;;21.70;99.90;;;;;;4992567;28;20763;-69
2023/09/10 01:01:22;;;;;;;3.00;2.70;;;21.70;99.90;;;;;;4991002;28;20229;-70
2023/09/10 01:03:50;;;;;;;4.45;2.80;;;21.80;99.90;;;;;;4985327;28;20230;-69
2023/09/10 01:06:19;;;;;;;6.65;3.03;;;21.80;99.90;;;;;;4990518;28;20221;-70
2023/09/10 01:08:47;;;;;;;4.15;3.10;;;21.80;99.90;;;;;;4987674;28;20206;-69
2023/09/10 01:11:24;;;;;;;3.47;3.17;;;21.70;99.90;;;;;;5004070;28;20656;-69
2023/09/10 01:14:14;;;;;;;3.90;3.60;;;21.60;99.90;;;;;;4988849;28;20206;-69
2023/09/10 01:16:47;;;;;;;3.97;3.65;;;21.40;99.90;;;;;;4973979;28;20265;-67
2023/09/10 01:19:38;;;;;;;3.10;2.80;;;21.40;99.90;;;;;;4996318;28;20292;-68
2023/09/10 01:22:13;;;;;;;4.20;3.80;;;21.20;99.90;;;;;;4984298;28;20308;-68
2023/09/10 01:24:48;;;;;;;4.30;3.40;;;21.00;99.90;;;;;;4996397;28;20200;-68
2023/09/10 01:27:16;;;;;;;6.10;4.43;;;20.80;99.90;;;;;;4993694;28;20217;-70
2023/09/10 01:29:44;;;;;;;3.60;3.30;;;20.80;99.90;;;;;;4994313;28;20216;-70
2023/09/10 01:32:24;;;;;;;4.40;3.95;;;20.70;99.90;;;;;;4990555;28;20206;-69
2023/09/10 01:34:56;;;;;;;4.10;3.53;;;20.80;99.90;;;;;;4990632;28;20240;-69
2023/09/10 01:37:30;;;;;;;4.57;3.70;;;20.80;99.90;;;;;;4987471;28;20598;-69
2023/09/10 01:40:05;;;;;;;3.85;3.10;;;20.80;99.90;;;;;;4994528;28;20213;-70
2023/09/10 01:42:35;;;;;;;5.90;4.30;;;20.80;99.90;;;;;;4995317;28;20217;-69
2023/09/10 01:45:04;;;;;;;3.30;3.00;;;20.70;99.90;;;;;;4990931;28;20217;-69
2023/09/10 01:47:33;;;;;;;4.18;3.70;;;20.70;99.90;;;;;;4990733;28;20209;-71
2023/09/10 01:50:06;;;;;;;4.15;3.75;;;20.60;99.90;;;;;;4993187;28;20285;-67
2023/09/10 01:52:34;;;;;;;4.15;3.72;;;20.60;99.90;;;;;;4995031;28;20672;-68
2023/09/10 01:55:04;;;;;;;3.85;3.22;;;20.60;99.90;;;;;;4982703;28;20300;-69
2023/09/10 01:57:32;;;;;;;4.47;4.00;;;20.60;99.90;;;;;;4994881;28;20228;-69
2023/09/10 01:59:59;;;;;;;3.78;3.47;;;20.80;99.90;;;;;;4994406;28;20209;-68
2023/09/10 02:02:27;;;;;;;3.40;3.10;;;20.80;99.90;;;;;;4993970;28;20213;-69
2023/09/10 02:04:57;;;;;;;3.70;3.30;;;21.00;99.90;;;;;;4994646;28;20650;-69
2023/09/10 02:07:25;;;;;;;3.90;3.50;;;21.00;99.90;;;;;;4994732;28;20195;-70
2023/09/10 02:09:53;;;;;;;4.35;3.95;;;21.10;99.90;;;;;;4998384;28;20202;-70
2023/09/10 02:12:22;;;;;;;3.70;3.25;;;21.20;99.90;;;;;;5000590;28;20197;-71
2023/09/10 02:14:50;;;;;;;4.63;4.10;;;21.30;99.90;;;;;;4995279;28;20210;-69
2023/09/10 02:17:18;;;;;;;5.13;3.35;;;21.20;99.90;;;;;;4994302;28;20735;-70
2023/09/10 02:19:46;;;;;;;3.60;3.30;;;21.20;99.90;;;;;;4994017;28;20580;-69
2023/09/10 02:22:14;;;;;;;3.70;3.40;;;21.20;99.90;;;;;;4998548;28;20217;-71
2023/09/10 02:24:42;;;;;;;3.67;3.28;;;21.20;99.90;;;;;;4992880;28;20567;-70
2023/09/10 02:27:10;;;;;;;3.50;3.10;;;21.20;99.90;;;;;;4993253;28;20303;-71
2023/09/10 02:29:39;;;;;;;3.95;3.65;;;21.20;99.90;;;;;;4990948;28;20213;-70
2023/09/10 02:32:07;;;;;;;3.72;3.47;;;21.30;99.90;;;;;;4993903;28;20205;-71
2023/09/10 02:34:35;;;;;;;3.92;3.50;;;21.10;99.90;;;;;;4993651;28;20695;-70
2023/09/10 02:37:04;;;;;;;4.32;3.42;;;21.00;99.90;;;;;;4979482;28;20199;-71
2023/09/10 02:39:32;;;;;;;3.72;3.42;;;21.00;99.90;;;;;;4976651;28;20217;-71
2023/09/10 02:42:00;;;;;;;3.45;3.15;;;20.60;99.90;;;;;;4977538;28;20301;-71
2023/09/10 02:44:28;;;;;;;3.90;3.60;;;20.40;99.90;;;;;;4983587;28;20272;-71
2023/09/10 02:46:57;;;;;;;5.63;4.72;;;20.20;99.90;;;;;;4975623;28;20226;-70
2023/09/10 02:49:25;;;;;;;4.50;3.67;;;20.30;99.90;;;;;;4987286;28;20657;-71
2023/09/10 02:51:54;;;;;;;3.97;3.67;;;20.20;99.90;;;;;;4986727;28;20210;-71
2023/09/10 02:54:22;;;;;;;4.70;3.47;;;19.90;99.90;;;;;;4990932;28;20206;-70
2023/09/10 02:56:51;;;;;;;5.97;4.25;;;19.80;99.90;;;;;;4990231;28;20213;-70
2023/09/10 02:59:20;;;;;;;4.68;4.18;;;19.60;99.90;;;;;;4970614;28;20206;-71
2023/09/10 03:01:49;;;;;;;4.82;3.95;;;19.50;99.90;;;;;;4963598;28;20214;-70
2023/09/10 03:04:19;;;;;;;3.97;3.67;;;19.40;99.90;;;;;;4969828;28;20213;-71
2023/09/10 03:06:48;;;;;;;4.78;4.03;;;19.10;99.90;;;;;;4965275;28;20285;-71
2023/09/10 03:09:17;;;;;;;4.32;3.80;;;19.10;99.90;;;;;;4972131;28;20221;-71
2023/09/10 03:11:46;;;;;;;4.50;3.95;;;18.90;99.90;;;;;;4972800;28;20684;-70
2023/09/10 03:14:15;;;;;;;4.70;4.30;;;18.90;99.90;;;;;;4966287;28;20369;-70
2023/09/10 03:16:43;;;;;;;4.60;3.50;;;18.90;99.90;;;;;;4979917;28;20237;-71
2023/09/10 03:19:11;;;;;;;4.55;3.47;;;19.10;99.90;;;;;;4969474;28;20235;-70
2023/09/10 03:21:41;;;;;;;4.45;4.05;;;19.10;99.90;;;;;;4966306;28;20677;-71
2023/09/10 03:24:09;;;;;;;4.78;4.20;;;19.00;99.90;;;;;;4961368;28;20219;-71
2023/09/10 03:26:37;;;;;;;4.90;4.38;;;19.10;99.90;;;;;;4963506;28;20313;-71
2023/09/10 03:29:05;;;;;;;3.97;3.60;;;19.10;99.90;;;;;;4962439;28;20200;-72
2023/09/10 03:31:33;;;;;;;5.80;3.60;;;19.10;99.90;;;;;;4962937;28;20709;-71
2023/09/10 03:34:01;;;;;;;6.63;4.80;;;19.10;99.90;;;;;;4971372;28;20246;-71
2023/09/10 03:36:30;;;;;;;3.97;3.60;;;19.20;99.90;;;;;;4988370;28;20240;-71
2023/09/10 03:38:59;;;;;;;5.20;3.83;;;19.40;99.90;;;;;;5002488;28;20197;-70
2023/09/10 03:41:27;;;;;;;6.55;4.65;;;19.60;99.90;;;;;;4992957;28;20202;-69
2023/09/10 03:43:56;;;;;;;4.15;3.75;;;20.00;99.90;;;;;;5007197;28;20299;-70
2023/09/10 03:46:24;;;;;;;4.43;4.00;;;20.00;99.90;;;;;;4978635;28;20258;-70
2023/09/10 03:48:52;;;;;;;3.72;3.38;;;20.20;99.90;;;;;;5003734;28;20208;-71
2023/09/10 03:51:20;;;;;;;4.68;4.28;;;20.30;99.90;;;;;;4991153;28;20615;-71
2023/09/10 03:53:48;;;;;;;5.97;4.25;;;20.30;99.90;;;;;;5003509;28;20216;-71
2023/09/10 03:56:17;;;;;;;5.40;4.00;;;20.30;99.90;;;;;;5003868;28;20711;-71
2023/09/10 03:58:45;;;;;;;4.30;3.67;;;20.40;99.90;;;;;;4998154;28;20255;-71
2023/09/10 04:01:13;;;;;;;4.75;4.10;;;20.20;99.90;;;;;;4995555;28;20248;-71
2023/09/10 04:03:41;;;;;;;3.63;3.17;;;20.20;99.90;;;;;;4996747;28;20691;-71
2023/09/10 04:06:09;;;;;;;3.58;3.20;;;20.30;99.90;;;;;;4988896;28;20309;-70
2023/09/10 04:08:37;;;;;;;4.00;3.60;;;20.50;99.90;;;;;;4980277;28;20556;-70
2023/09/10 04:11:06;;;;;;;4.47;3.50;;;20.60;99.90;;;;;;4993030;28;20227;-71
2023/09/10 04:13:36;;;;;;;4.25;3.85;;;20.60;99.90;;;;;;4995111;28;20288;-70
2023/09/10 04:16:04;;;;;;;4.45;4.05;;;20.20;99.90;;;;;;4995568;28;20651;-70
2023/09/10 04:18:34;;;;;;;3.95;3.65;;;20.00;99.90;;;;;;4999905;28;20269;-70
2023/09/10 04:21:04;;;;;;;4.88;4.40;;;19.80;99.90;;;;;;4988409;28;20214;-70
2023/09/10 04:23:32;;;;;;;3.63;3.33;;;19.40;99.90;;;;;;4989764;28;20231;-70
2023/09/10 04:26:00;;;;;;;4.10;3.80;;;19.30;99.90;;;;;;4991663;28;20232;-70
2023/09/10 04:28:28;;;;;;;3.88;3.58;;;19.30;99.90;;;;;;4979637;28;20203;-70
2023/09/10 04:30:57;;;;;;;4.38;3.60;;;19.30;99.90;;;;;;4998300;28;20211;-69
2023/09/10 04:33:25;;;;;;;4.40;4.00;;;19.30;99.90;;;;;;4988465;28;20204;-69
2023/09/10 04:35:57;;;;;;;4.80;4.40;;;19.10;99.90;;;;;;4989375;28;20230;-69
2023/09/10 04:38:25;;;;;;;4.20;3.75;;;19.20;99.90;;;;;;4986157;28;20206;-69
2023/09/10 04:40:53;;;;;;;4.55;4.15;;;19.50;99.90;;;;;;4991521;28;20260;-70
2023/09/10 04:43:20;;;;;;;4.25;3.85;;;19.80;99.90;;;;;;4979232;28;20209;-70
2023/09/10 04:45:48;;;;;;;5.03;4.25;;;20.00;99.90;;;;;;4998459;28;20225;-70
2023/09/10 04:48:18;;;;;;;4.18;3.78;;;20.40;99.90;;;;;;5000363;28;20206;-70
2023/09/10 04:50:46;;;;;;;4.45;3.70;;;20.20;99.90;;;;;;4995009;28;20213;-70
2023/09/10 04:53:15;;;;;;;4.72;4.22;;;20.00;99.90;;;;;;4983067;28;20215;-70
2023/09/10 04:55:43;;;;;;;3.80;3.38;;;20.00;99.90;;;;;;4997746;28;20225;-69
2023/09/10 04:58:12;;;;;;;4.50;4.10;;;19.90;99.90;;;;;;5003937;28;20288;-69
2023/09/10 05:00:40;;;;;;;4.10;3.70;;;19.90;99.90;;;;;;4992952;28;20206;-71
2023/09/10 05:03:08;;;;;;;4.10;3.70;;;20.00;99.90;;;;;;4983948;28;20191;-70
2023/09/10 05:05:38;;;;;;;4.40;3.97;;;20.10;99.90;;;;;;4994457;28;20222;-70
2023/09/10 05:08:06;;;;;;;3.70;3.00;;;20.20;99.90;;;;;;4985742;28;20219;-70
2023/09/10 05:10:34;;;;;;;3.90;3.60;;;20.00;99.90;;;;;;4995262;28;20208;-70
2023/09/10 05:13:02;;;;;;;4.55;4.15;;;19.90;99.90;;;;;;5005366;28;20210;-70
2023/09/10 05:15:30;;;;;;;4.32;3.92;;;20.00;99.90;;;;;;5001892;28;20735;-70
2023/09/10 05:17:58;;;;;;;4.18;3.72;;;20.20;99.90;;;;;;4991069;28;20295;-69
2023/09/10 05:20:26;;;;;;;4.10;3.70;;;20.10;99.90;;;;;;5000346;28;20213;-70
2023/09/10 05:22:55;;;;;;;3.78;3.47;;;20.00;99.90;;;;;;4984248;28;20259;-69
2023/09/10 05:25:23;;;;;;;4.60;4.20;;;20.00;99.90;;;;;;4980117;28;20230;-70
2023/09/10 05:27:51;;;;;;;5.85;4.38;;;20.10;99.90;;;;;;4992441;28;20213;-70
2023/09/10 05:30:19;;;;;;;4.20;3.80;;;20.00;99.90;;;;;;4990258;28;20210;-70
2023/09/10 05:32:47;;;;;;;5.20;4.38;;;19.90;99.90;;;;;;4990444;28;20205;-71
2023/09/10 05:35:15;;;;;;;4.25;3.50;;;19.80;99.90;;;;;;4987370;28;20716;-70
2023/09/10 05:37:43;;;;;;;4.10;3.80;;;19.70;99.90;;;;;;4991419;28;20586;-70
2023/09/10 05:40:13;;;;;;;4.47;4.05;;;19.80;99.90;;;;;;4995109;28;20300;-69
2023/09/10 05:42:41;;;;;;;3.95;3.60;;;19.60;99.90;;;;;;5006108;28;20209;-68
2023/09/10 05:45:09;;;;;;;4.22;3.30;;;19.60;99.90;;;;;;4990628;28;20230;-69
2023/09/10 05:47:37;;;;;;;3.80;3.20;;;19.60;99.90;;;;;;4991147;28;20206;-70
2023/09/10 05:50:06;;;;;;;8.88;3.60;;;19.60;99.90;;;;;;4990439;28;20202;-69
2023/09/10 05:52:34;;;;;;;3.58;3.28;;;19.80;99.90;;;;;;4981519;28;20206;-70
2023/09/10 05:55:02;;;;;;;4.18;3.78;;;20.00;99.90;;;;;;4992608;28;20222;-69
2023/09/10 05:57:31;;;;;;;5.10;4.60;;;20.10;99.90;;;;;;4987897;28;20221;-70
2023/09/10 05:59:59;;;;;;;4.18;3.78;;;20.30;99.90;;;;;;4990100;28;20205;-70
2023/09/10 06:02:27;;;;;;;3.65;3.35;;;20.30;99.90;;;;;;4991919;28;20205;-71
2023/09/10 06:04:55;;;;;;;6.85;4.60;;;20.50;99.90;;;;;;4987625;28;20707;-70
2023/09/10 06:07:24;;;;;;;4.78;3.67;;;20.60;99.90;;;;;;4995414;28;20217;-70
2023/09/10 06:09:52;;;;;;;4.80;4.38;;;20.70;99.90;;;;;;4986458;28;20202;-70
2023/09/10 06:12:20;;;;;;;3.92;3.53;;;20.90;99.90;;;;;;4992312;28;20221;-69
2023/09/10 06:14:49;;;;;;;3.85;3.55;;;21.00;99.90;;;;;;4988433;28;21392;-70
2023/09/10 06:17:20;;;;;;;3.85;3.47;;;21.00;99.90;;;;;;4993190;28;21170;-69
2023/09/10 06:19:51;;;;;;;6.45;4.28;;;21.00;99.90;;;;;;4990856;28;20198;-70
2023/09/10 06:22:19;;;;;;;3.45;3.17;;;21.00;99.90;;;;;;4993235;28;20214;-70
2023/09/10 06:24:47;;;;;;;3.65;3.30;;;20.90;99.90;;;;;;4987067;28;20222;-71
2023/09/10 06:27:15;;;;;;;3.83;3.50;;;20.90;99.90;;;;;;4992072;28;20213;-71
2023/09/10 06:29:43;;;;;;;4.20;3.85;;;21.00;99.90;;;;;;4989552;28;20254;-70
2023/09/10 06:32:12;;;;;;;4.90;3.88;;;21.00;99.90;;;;;;4993743;28;20209;-70
2023/09/10 06:34:41;;;;;;;3.90;3.60;;;21.00;99.90;;;;;;4985369;28;20288;-70
2023/09/10 06:37:09;;;;;;;4.32;3.90;;;21.10;99.90;;;;;;4994882;28;20227;-70
2023/09/10 06:39:39;;;;;;;4.15;3.75;;;21.00;99.90;;;;;;4991309;28;20227;-70
2023/09/10 06:42:08;;;;;;;4.35;3.95;;;21.10;99.90;;;;;;4978650;28;20224;-71
2023/09/10 06:44:38;;;;;;;6.35;4.07;;;20.90;99.90;;;;;;4991477;28;20217;-70
2023/09/10 06:47:06;;;;;;;4.00;3.70;;;20.80;99.90;;;;;;4994676;28;20284;-70
2023/09/10 06:49:35;;;;;;;5.32;4.20;;;20.80;99.90;;;;;;4991760;28;20216;-71
2023/09/10 06:52:04;;;;;;;5.20;4.70;;;20.80;99.90;;;;;;4995354;28;20213;-70
2023/09/10 06:54:32;;;;;;;4.30;3.90;;;20.90;99.90;;;;;;4991712;28;20217;-70
2023/09/10 06:57:01;;;;;;;3.80;3.50;;;20.90;99.90;;;;;;4997372;28;20209;-70
2023/09/10 06:59:29;;;;;;;7.43;4.53;;;21.00;99.90;;;;;;4996931;28;20488;-70
2023/09/10 07:01:57;;;;;;;9.23;4.65;;;21.00;99.90;;;;;;4993526;28;20205;-70
2023/09/10 07:04:26;;;;;;;3.72;3.42;;;21.10;99.90;;;;;;4989560;28;21137;-72
2023/09/10 07:06:56;;;;;;;5.80;5.05;;;21.20;99.90;;;;;;4994701;28;20244;-70
2023/09/10 07:09:24;;;;;;;6.90;5.55;;;21.20;99.90;;;;;;4996619;28;20217;-69
2023/09/10 07:11:54;;;;;;;4.78;4.03;;;21.20;99.90;;;;;;4998202;28;20801;-70
2023/09/10 07:14:22;;;;;;;4.30;3.65;;;21.30;99.90;;;;;;4995211;28;20694;-71
2023/09/10 07:16:50;;;;;;;4.85;4.15;;;21.40;99.90;;;;;;4995069;28;20325;-70
2023/09/10 07:19:18;;;;;;;7.00;4.50;;;21.40;99.90;;;;;;4998094;28;20691;-70
2023/09/10 07:21:46;;;;;;;5.10;4.53;;;21.50;99.90;;;;;;4997175;28;20217;-70
2023/09/10 07:24:15;;;;;;;5.38;4.20;;;21.60;99.90;;;;;;4995656;28;20210;-70
2023/09/10 07:26:45;;;;;;;5.15;4.75;;;21.70;99.90;;;;;;4995189;28;20233;-70
2023/09/10 07:29:15;;;;;;;8.00;4.68;;;21.90;99.90;;;;;;4996437;28;20668;-70
2023/09/10 07:31:44;;;;;;;4.18;3.78;;;22.00;99.90;;;;;;4997608;28;20212;-70
2023/09/10 07:34:12;;;;;;;6.38;4.22;;;22.10;99.90;;;;;;4997458;28;20239;-70
2023/09/10 07:36:40;;;;;;;4.97;4.47;;;22.20;99.90;;;;;;4994147;28;20241;-70
2023/09/10 07:39:08;;;;;;;5.65;4.10;;;22.40;99.90;;;;;;4997517;28;20209;-70
2023/09/10 07:41:37;;;;;;;4.40;3.78;;;22.40;99.90;;;;;;4990423;28;20202;-70
2023/09/10 07:44:06;;;;;;;4.25;3.25;;;22.50;99.90;;;;;;4993634;28;20220;-69
2023/09/10 07:46:34;;;;;;;4.05;3.75;;;22.70;99.90;;;;;;4991127;28;20241;-70
2023/09/10 07:49:02;;;;;;;5.38;3.78;;;22.80;99.90;;;;;;4990904;28;20213;-69
2023/09/10 07:51:30;;;;;;;5.18;3.08;;;22.90;99.90;;;;;;4993563;28;20209;-72
2023/09/10 07:53:58;;;;;;;4.43;4.07;;;23.10;99.90;;;;;;4993579;28;20214;-70
2023/09/10 07:56:26;;;;;;;3.90;3.58;;;23.30;99.90;;;;;;4993707;28;20225;-70
2023/09/10 07:58:55;;;;;;;4.20;3.80;;;23.50;99.90;;;;;;4992538;28;20237;-70
2023/09/10 08:01:24;;;;;;;4.20;3.80;;;23.60;99.90;;;;;;4991546;28;20209;-70
2023/09/10 08:03:52;;;;;;;4.53;3.53;;;23.80;99.90;;;;;;4993348;28;20224;-71
2023/09/10 08:06:20;;;;;;;4.85;3.85;;;24.00;99.90;;;;;;4988862;28;20751;-70
2023/09/10 08:08:48;;;;;;;3.28;2.95;;;24.20;99.90;;;;;;4994007;28;20234;-70
2023/09/10 08:11:16;;;;;;;4.00;3.47;;;24.50;99.90;;;;;;4991742;28;20245;-70
2023/09/10 08:13:44;;;;;;;4.75;4.35;;;24.60;99.90;;;;;;4992584;28;20220;-70
2023/09/10 08:16:15;;;;;;;4.47;4.05;;;24.80;99.90;;;;;;4990383;28;20227;-71
2023/09/10 08:18:44;;;;;;;4.10;3.72;;;25.00;99.90;;;;;;4991102;28;20211;-70
2023/09/10 08:21:12;;;;;;;4.70;3.30;;;25.20;99.90;;;;;;4990851;28;20551;-70
2023/09/10 08:23:42;;;;;;;3.65;3.35;;;25.50;99.90;;;;;;4975655;28;20589;-70
2023/09/10 08:26:11;;;;;;;4.68;3.88;;;25.60;99.90;;;;;;4989046;28;20229;-71
2023/09/10 08:28:39;;;;;;;3.85;3.50;;;25.70;99.90;;;;;;4992208;28;20206;-71
2023/09/10 08:31:07;;;;;;;4.63;3.40;;;25.80;99.90;;;;;;4988177;28;20684;-70
2023/09/10 08:33:37;;;;;;;4.63;4.22;;;26.00;99.90;;;;;;4988563;28;20713;-71
2023/09/10 08:36:05;;;;;;;3.90;3.60;;;26.20;99.90;;;;;;4989121;28;20256;-71
2023/09/10 08:38:34;;;;;;;3.75;3.45;;;26.40;99.90;;;;;;4987471;28;20206;-71
2023/09/10 08:41:12;;;;;;;3.63;3.33;;;26.50;99.90;;;;;;4993510;28;20213;-72
2023/09/10 08:43:46;;;;;;;4.05;3.67;;;26.60;99.90;;;;;;4989849;28;20695;-70
2023/09/10 08:46:15;;;;;;;3.65;3.40;;;26.60;99.90;;;;;;4985578;28;20832;-71
2023/09/10 08:48:45;;;;;;;7.13;4.47;;;26.70;99.90;;;;;;4991813;28;20214;-70
2023/09/10 08:51:13;;;;;;;4.35;3.95;;;26.90;99.90;;;;;;4990402;28;20582;-70
2023/09/10 08:53:43;;;;;;;4.30;3.90;;;27.00;99.90;;;;;;4991475;28;20217;-71
2023/09/10 08:56:12;;;;;;;3.58;3.15;;;27.20;99.90;;;;;;4989328;28;20221;-70
2023/09/10 08:58:42;;;;;;;4.30;3.90;;;27.40;99.90;;;;;;4989323;28;20289;-70
2023/09/10 09:01:11;;;;;;;3.90;3.17;;;27.40;99.90;;;;;;4990331;28;20232;-70
2023/09/10 09:03:39;;;;;;;4.03;3.72;;;27.50;99.90;;;;;;4991321;28;20292;-71
2023/09/10 09:06:09;;;;;;;3.80;3.50;;;27.70;99.90;;;;;;4987636;28;20304;-70
2023/09/10 09:08:41;;;;;;;4.53;4.13;;;27.90;99.90;;;;;;4988997;28;20222;-70
2023/09/10 09:11:11;;;;;;;3.90;3.58;;;27.90;99.90;;;;;;4994861;28;20220;-70
2023/09/10 09:13:43;;;;;;;4.05;3.60;;;27.90;99.90;;;;;;4989534;28;20303;-71
2023/09/10 09:16:12;;;;;;;3.60;3.30;;;28.00;99.90;;;;;;4989162;28;20275;-70
2023/09/10 09:18:41;;;;;;;4.00;3.70;;;28.20;99.90;;;;;;4992205;28;20213;-70
2023/09/10 09:21:17;;;;;;;3.97;3.65;;;28.60;99.90;;;;;;4990219;28;20268;-70
2023/09/10 09:23:47;;;;;;;5.15;4.65;;;28.90;99.90;;;;;;4991626;28;20209;-70
2023/09/10 09:26:15;;;;;;;4.00;3.70;;;29.00;99.90;;;;;;4989116;28;20229;-70
2023/09/10 09:28:43;;;;;;;4.47;4.18;;;29.10;99.90;;;;;;4989549;28;20299;-70
2023/09/10 09:31:12;;;;;;;4.32;3.97;;;29.20;99.90;;;;;;4988192;28;20258;-70
2023/09/10 09:33:40;;;;;;;3.63;3.33;;;29.30;99.90;;;;;;4991648;28;20209;-71
2023/09/10 09:36:09;;;;;;;4.00;3.42;;;29.60;99.90;;;;;;4986438;28;21138;-70
2023/09/10 09:38:45;;;;;;;3.10;2.80;;;29.80;99.90;;;;;;4985914;28;20591;-70
2023/09/10 09:41:15;;;;;;;5.03;4.53;;;29.80;99.90;;;;;;4991614;28;20223;-70
2023/09/10 09:43:43;;;;;;;2.97;2.78;;;29.80;99.90;;;;;;4988701;28;20750;-70
2023/09/10 09:46:11;;;;;;;4.10;3.67;;;30.10;99.90;;;;;;4990428;28;20240;-70
2023/09/10 09:48:40;;;;;;;3.63;3.33;;;30.20;99.90;;;;;;4987410;28;20944;-70
2023/09/10 09:51:09;;;;;;;4.70;3.47;;;30.40;99.90;;;;;;4990081;28;20860;-70
2023/09/10 09:53:37;;;;;;;3.53;3.22;;;30.60;99.90;;;;;;4989393;28;20213;-70
2023/09/10 09:56:07;;;;;;;4.57;2.90;;;30.70;99.90;;;;;;4990190;28;20228;-70
2023/09/10 09:58:35;;;;;;;3.38;3.08;;;30.80;99.90;;;;;;4991222;28;20217;-70
2023/09/10 10:01:03;;;;;;;3.85;3.45;;;31.00;99.90;;;;;;4995140;28;20236;-70
2023/09/10 10:03:32;;;;;;;3.72;3.45;;;31.10;99.90;;;;;;4988064;28;20281;-70
2023/09/10 10:06:02;;;;;;;3.73;3.43;;;31.30;99.90;;;;;;4989554;28;20304;-70
2023/09/10 10:08:30;;;;;;;3.45;3.25;;;31.40;99.90;;;;;;4988513;28;20654;-71
2023/09/10 10:10:59;;;;;;;3.40;3.07;;;31.40;99.90;;;;;;4991475;28;21210;-71
2023/09/10 10:13:28;;;;;;;3.50;3.20;;;31.40;99.90;;;;;;4995640;28;20647;-70
2023/09/10 10:15:57;;;;;;;4.73;4.03;;;31.60;99.90;;;;;;4990774;28;20599;-70
2023/09/10 10:18:27;;;;;;;5.07;3.37;;;31.80;99.90;;;;;;4992704;28;20628;-71
2023/09/10 10:20:59;;;;;;;4.90;4.40;;;31.90;99.90;;;;;;4995538;28;20632;-71
2023/09/10 10:23:27;;;;;;;4.27;3.20;;;32.00;99.90;;;;;;4995693;28;21373;-71
2023/09/10 10:25:58;;;;;;;2.83;2.63;;;32.00;99.90;;;;;;4993151;28;20665;-72
2023/09/10 10:28:28;;;;;;;3.23;2.93;;;32.20;99.90;;;;;;4994476;28;21225;-71
2023/09/10 10:31:05;;;;;;;3.43;3.10;;;32.10;99.90;;;;;;4992297;28;20643;-70
2023/09/10 10:33:37;;;;;;;4.00;3.60;;;32.20;99.90;;;;;;4991694;28;20640;-71
2023/09/10 10:36:11;;;;;;;3.33;3.03;;;32.20;99.90;;;;;;4989396;28;20668;-71
2023/09/10 10:38:44;;;;;;;4.37;2.80;;;32.00;99.90;;;;;;4990797;28;20651;-71
2023/09/10 10:41:14;;;;;;;6.00;2.70;;;32.00;99.90;;;;;;4993822;28;20651;-70
2023/09/10 10:43:50;;;;;;;4.50;3.00;;;32.30;99.90;;;;;;4995005;28;20635;-71
2023/09/10 10:46:19;;;;;;;3.37;3.07;;;32.50;99.90;;;;;;4990294;28;20774;-71
2023/09/10 10:48:47;;;;;;;3.47;3.03;;;32.70;99.90;;;;;;4987927;28;21054;-71
2023/09/10 10:51:17;;;;;;;3.37;3.07;;;32.80;99.30;;;;;;4992372;28;20643;-71
2023/09/10 10:53:46;;;;;;;2.97;2.73;;;33.10;99.60;;;;;;4991299;28;20649;-71
2023/09/10 10:56:15;;;;;;;2.87;2.60;;;33.10;99.50;;;;;;4993911;28;20655;-71
2023/09/10 10:58:45;;;;;;;5.10;3.10;;;33.10;99.50;;;;;;4993982;28;20727;-71
2023/09/10 11:01:13;;;;;;;3.50;3.00;;;33.20;98.90;;;;;;4995307;28;20698;-72
2023/09/10 11:03:44;;;;;;;3.43;3.23;;;33.10;98.40;;;;;;4991881;28;20743;-67
2023/09/10 11:06:12;;;;;;;3.13;2.93;;;33.20;97.90;;;;;;4991451;28;20682;-68
2023/09/10 11:08:41;;;;;;;3.17;2.67;;;33.30;97.90;;;;;;4990774;28;20640;-68
2023/09/10 11:11:11;;;;;;;3.23;2.80;;;33.60;98.10;;;;;;4993605;28;20650;-68
2023/09/10 11:14:02;;;;;;;3.10;2.83;;;33.90;97.00;;;;;;4994785;28;20741;-68
2023/09/10 11:16:31;;;;;;;2.30;2.10;;;34.10;97.30;;;;;;4989120;28;20663;-67
2023/09/10 11:19:00;;;;;;;2.90;2.70;;;34.20;97.50;;;;;;4993696;28;21096;-67
2023/09/10 11:22:03;;;;;;;3.30;3.10;;;34.40;96.20;;;;;;4990716;28;20635;-69
2023/09/10 11:24:36;;;;;;;2.83;2.60;;;34.20;96.70;;;;;;4990189;28;21395;-69
2023/09/10 11:27:21;;;;;;;4.80;3.10;;;34.20;96.10;;;;;;4993115;28;21180;-68
2023/09/10 11:30:08;;;;;;;2.93;2.70;;;34.30;95.40;;;;;;4990397;28;20638;-69
2023/09/10 11:32:36;;;;;;;2.80;2.53;;;34.80;95.00;;;;;;4994636;28;20990;-67
2023/09/10 11:35:25;;;;;;;3.43;2.93;;;34.80;94.60;;;;;;4990608;28;20687;-69
2023/09/10 11:37:55;;;;;;;3.67;2.40;;;34.60;94.70;;;;;;4989133;28;20647;-69
2023/09/10 11:40:25;;;;;;;3.13;2.87;;;34.70;94.50;;;;;;4992401;28;20650;-68
2023/09/10 11:42:53;;;;;;;2.80;2.60;;;34.50;94.00;;;;;;4997670;28;20697;-68
2023/09/10 11:45:23;;;;;;;3.20;2.43;;;34.50;93.90;;;;;;5000236;28;20659;-67
2023/09/10 11:47:51;;;;;;;2.87;2.50;;;34.80;93.80;;;;;;4992347;28;20645;-68
2023/09/10 11:50:24;;;;;;;4.97;3.03;;;35.00;93.30;;;;;;4991631;28;20637;-68
2023/09/10 11:52:52;;;;;;;3.60;3.27;;;35.30;93.00;;;;;;4996299;28;20686;-69
2023/09/10 11:55:21;;;;;;;3.57;2.80;;;35.20;93.30;;;;;;4994122;28;20656;-69
2023/09/10 11:57:50;;;;;;;4.80;3.10;;;35.20;92.90;;;;;;4992262;28;20715;-68
2023/09/10 12:00:19;;;;;;;11.63;2.83;;;35.30;93.30;;;;;;4990013;28;21198;-68
2023/09/10 12:02:48;;;;;;;5.00;2.80;;;35.40;92.80;;;;;;4989949;28;21154;-69
2023/09/10 12:05:16;;;;;;;3.30;3.10;;;35.70;92.10;;;;;;4989991;28;20696;-68
2023/09/10 12:07:46;;;;;;;3.23;3.00;;;35.70;91.90;;;;;;4999787;28;20672;-68
2023/09/10 12:10:14;;;;;;;7.40;3.30;;;35.70;91.80;;;;;;4977684;28;21197;-68
2023/09/10 12:12:46;;;;;;;4.83;2.77;;;35.60;91.70;;;;;;4975807;28;20640;-68
2023/09/10 12:15:15;;;;;;;5.10;2.90;;;35.40;91.30;;;;;;4980793;28;20660;-68
2023/09/10 12:17:43;;;;;;;2.20;2.07;;;35.50;92.60;;;;;;4981863;28;20659;-69
2023/09/10 12:20:13;;;;;;;4.67;3.07;;;35.80;91.10;;;;;;4983462;28;20632;-68
2023/09/10 12:22:41;;;;;;;2.33;2.23;;;36.30;90.30;;;;;;5005483;28;21216;-68
2023/09/10 12:25:10;;;;;;;3.53;2.87;;;36.80;90.00;;;;;;4981344;28;20744;-69
2023/09/10 12:27:38;;;;;;;4.53;2.80;;;37.30;90.20;;;;;;4981270;28;20735;-69
2023/09/10 12:30:08;;;;;;;3.73;2.57;;;37.30;87.60;;;;;;4984870;28;21033;-68
2023/09/10 12:32:36;;;;;;;2.90;2.10;;;37.30;86.40;;;;;;4993157;28;20635;-68
2023/09/10 12:35:05;;;;;;;2.90;2.70;;;37.70;86.00;;;;;;4986854;28;20657;-68
2023/09/10 12:37:35;;;;;;;4.60;2.83;;;37.80;85.50;;;;;;4992980;28;20638;-68
2023/09/10 12:40:04;;;;;;;2.90;2.40;;;37.80;86.30;;;;;;4975077;28;20994;-70
2023/09/10 12:42:32;;;;;;;3.00;2.33;;;37.60;85.80;;;;;;4988367;28;20620;-68
2023/09/10 12:45:00;;;;;;;2.70;2.50;;;37.40;85.30;;;;;;4984515;28;20740;-68
2023/09/10 12:47:29;;;;;;;7.40;2.57;;;37.40;86.20;;;;;;4994953;28;20708;-68
2023/09/10 12:49:57;;;;;;;3.20;3.00;;;37.60;84.40;;;;;;4981276;28;20968;-69
2023/09/10 12:52:25;;;;;;;3.90;2.63;;;37.40;84.30;;;;;;4994680;28;20733;-69
2023/09/10 12:54:54;;;;;;;3.90;2.90;;;37.50;82.60;;;;;;4983890;28;20649;-70
2023/09/10 12:57:22;;;;;;;2.87;2.67;;;37.30;82.70;;;;;;4991619;28;20653;-67
2023/09/10 12:59:53;;;;;;;2.80;2.60;;;37.40;82.70;;;;;;4997939;28;20700;-69